Bitola, Macedonia
Current Conditions -  °F | °C
As of 5:00 PM on Friday 28 Nov 2014 (Local Time) from LWOH Reporting Station
Broken Clouds Broken Clouds  
Wind Chill: 48°   Ceiling: 8300
Heat Index: 48°   Visibility: 6mi
Dew Point: 41°   Wind: 0mph
Humidity: 76%   Direction: NA
Pressure: 30.15"   Gusts: NA
Location:  41.04°N, 21.34°E
Report Text: LWOH 281500Z 00000KT 9999 FEW025 SCT040 BKN083 09/05 Q1021
Loading
Personal Weather Stations






























Interactive Weather Map New forecast layout! Learn more

10-Day Weather Forecast

Advertisements
Track Severe Weather on mobile